createdAt,value
2023-04-18T00:01:32.282Z,16.27
2023-04-18T00:03:59.112Z,16.13
2023-04-18T00:06:26.005Z,15.88
2023-04-18T00:08:52.660Z,16.17
2023-04-18T00:11:19.248Z,15.23
2023-04-18T00:13:47.537Z,16.70
2023-04-18T00:16:14.969Z,16.45
2023-04-18T00:18:41.822Z,16.55
2023-04-18T00:21:08.911Z,15.30
2023-04-18T00:23:36.079Z,17.17
2023-04-18T00:26:03.119Z,16.20
2023-04-18T00:28:29.874Z,14.35
2023-04-18T00:30:56.619Z,17.48
2023-04-18T00:33:23.366Z,14.40
2023-04-18T00:35:49.897Z,16.02
2023-04-18T00:38:16.522Z,15.73
2023-04-18T00:40:43.162Z,15.82
2023-04-18T00:43:09.758Z,16.55
2023-04-18T00:45:37.085Z,18.33
2023-04-18T00:48:03.815Z,17.00
2023-04-18T00:50:31.434Z,17.77
2023-04-18T00:52:58.893Z,16.85
2023-04-18T00:55:25.787Z,18.75
2023-04-18T00:57:52.716Z,16.97
2023-04-18T01:00:19.514Z,16.88
2023-04-18T01:02:47.407Z,17.63
2023-04-18T01:05:14.100Z,16.98
2023-04-18T01:07:41.690Z,19.02
2023-04-18T01:10:10.725Z,16.73
2023-04-18T01:12:37.970Z,18.30
2023-04-18T01:15:06.230Z,18.23
2023-04-18T01:17:34.827Z,15.68
2023-04-18T01:20:02.137Z,18.27
2023-04-18T01:22:30.093Z,17.07
2023-04-18T01:24:57.205Z,16.98
2023-04-18T01:27:23.848Z,18.77
2023-04-18T01:29:50.686Z,18.13
2023-04-18T01:32:20.151Z,19.10
2023-04-18T01:34:46.742Z,20.73
2023-04-18T01:37:13.341Z,18.48
2023-04-18T01:39:40.098Z,20.80
2023-04-18T01:42:06.703Z,20.80
2023-04-18T01:44:33.267Z,21.00
2023-04-18T01:46:59.858Z,22.37
2023-04-18T01:49:26.609Z,21.52
2023-04-18T01:51:53.158Z,21.52
2023-04-18T01:54:19.722Z,23.48
2023-04-18T01:56:46.362Z,22.58
2023-04-18T01:59:12.880Z,22.90
2023-04-18T02:01:39.507Z,23.40
2023-04-18T02:04:06.106Z,25.00
2023-04-18T02:06:32.852Z,22.08
2023-04-18T02:08:59.431Z,24.80
2023-04-18T02:11:26.319Z,21.83
2023-04-18T02:13:52.889Z,22.98
2023-04-18T02:16:19.599Z,20.15
2023-04-18T02:18:46.204Z,19.40
2023-04-18T02:21:12.901Z,16.27
2023-04-18T02:23:39.502Z,17.97
2023-04-18T02:26:06.658Z,14.13
2023-04-18T02:28:33.318Z,15.23
2023-04-18T02:31:00.542Z,13.40
2023-04-18T02:33:27.206Z,10.98
2023-04-18T02:35:53.721Z,11.47
2023-04-18T02:38:20.488Z,12.23
2023-04-18T02:40:47.110Z,12.10
2023-04-18T02:43:13.850Z,14.40
2023-04-18T02:45:40.651Z,10.13
2023-04-18T02:48:07.277Z,12.13
2023-04-18T02:50:35.463Z,11.00
2023-04-18T02:53:02.178Z,10.18
2023-04-18T02:55:28.856Z,13.80
2023-04-18T02:57:56.023Z,10.57
2023-04-18T03:00:22.718Z,12.73
2023-04-18T03:02:49.391Z,12.20
2023-04-18T03:05:16.656Z,8.57
2023-04-18T03:07:43.415Z,12.65
2023-04-18T03:10:11.356Z,11.13
2023-04-18T03:12:37.984Z,11.27
2023-04-18T03:15:05.247Z,9.95
2023-04-18T03:17:31.934Z,11.13
2023-04-18T03:19:58.495Z,8.27
2023-04-18T03:22:25.119Z,9.20
2023-04-18T03:24:51.705Z,13.30
2023-04-18T03:27:18.739Z,10.95
2023-04-18T03:29:45.575Z,11.85
2023-04-18T03:32:12.984Z,9.05
2023-04-18T03:34:39.621Z,11.00
2023-04-18T03:37:06.367Z,8.67
2023-04-18T03:39:33.148Z,10.50
2023-04-18T03:41:59.721Z,8.57
2023-04-18T03:44:26.325Z,9.65
2023-04-18T03:46:54.146Z,9.30
2023-04-18T03:49:20.678Z,8.83
2023-04-18T03:51:48.062Z,9.25
2023-04-18T03:54:16.012Z,9.20
2023-04-18T03:56:43.078Z,7.78
2023-04-18T03:59:10.922Z,9.75
2023-04-18T04:01:37.978Z,8.73
2023-04-18T04:04:05.328Z,9.27
2023-04-18T04:06:32.269Z,9.07
2023-04-18T04:08:58.918Z,8.07
2023-04-18T04:11:26.067Z,5.93
2023-04-18T04:13:52.991Z,7.93
2023-04-18T04:16:19.871Z,7.07
2023-04-18T04:18:46.637Z,7.80
2023-04-18T04:21:13.382Z,7.45
2023-04-18T04:23:42.698Z,7.90
2023-04-18T04:26:09.651Z,6.97
2023-04-18T04:28:36.225Z,8.40
2023-04-18T04:31:06.435Z,8.57
2023-04-18T04:33:34.298Z,6.70
2023-04-18T04:36:05.675Z,7.50
2023-04-18T04:38:32.964Z,8.00
2023-04-18T04:40:59.748Z,6.65
2023-04-18T04:43:28.840Z,7.38
2023-04-18T04:45:55.946Z,6.55
2023-04-18T04:48:22.768Z,6.55
2023-04-18T04:50:57.236Z,7.23
2023-04-18T04:53:30.493Z,7.10
2023-04-18T04:55:58.058Z,7.07
2023-04-18T04:58:25.090Z,5.70
2023-04-18T05:00:52.687Z,7.68
2023-04-18T05:03:19.806Z,6.10
2023-04-18T05:05:47.325Z,5.93
2023-04-18T05:08:14.242Z,7.00
2023-04-18T05:10:41.732Z,6.25
2023-04-18T05:13:08.455Z,6.63
2023-04-18T05:15:35.044Z,6.07
2023-04-18T05:18:01.715Z,7.13
2023-04-18T05:20:28.335Z,5.00
2023-04-18T05:22:54.921Z,6.93
2023-04-18T05:25:21.505Z,6.22
2023-04-18T05:27:48.324Z,4.63
2023-04-18T05:30:14.987Z,5.63
2023-04-18T05:32:41.694Z,5.85
2023-04-18T05:35:09.208Z,5.53
2023-04-18T05:37:35.930Z,5.45
2023-04-18T05:40:03.908Z,5.60
2023-04-18T05:42:30.521Z,4.47
2023-04-18T05:44:57.206Z,5.95
2023-04-18T05:47:26.982Z,5.80
2023-04-18T05:49:53.670Z,4.25
2023-04-18T05:52:20.673Z,5.80
2023-04-18T05:54:47.202Z,5.43
2023-04-18T05:57:14.023Z,3.72
2023-04-18T05:59:40.686Z,5.03
2023-04-18T06:02:13.203Z,5.35
2023-04-18T06:04:42.395Z,5.93
2023-04-18T06:07:09.596Z,6.45
2023-04-18T06:09:36.329Z,6.13
2023-04-18T06:12:03.003Z,6.28
2023-04-18T06:14:29.599Z,5.18
2023-04-18T06:16:56.220Z,5.63
2023-04-18T06:19:22.973Z,5.97
2023-04-18T06:21:49.986Z,5.47
2023-04-18T06:24:16.824Z,6.15
2023-04-18T06:26:43.633Z,5.85
2023-04-18T06:29:10.499Z,5.67
2023-04-18T06:31:37.109Z,5.35
2023-04-18T06:34:03.657Z,4.95
2023-04-18T06:36:30.440Z,4.88
2023-04-18T06:38:57.084Z,5.10
2023-04-18T06:41:23.785Z,5.03
2023-04-18T06:44:02.590Z,5.53
2023-04-18T06:46:31.454Z,5.13
2023-04-18T06:48:58.155Z,6.22
2023-04-18T06:51:24.812Z,6.90
2023-04-18T06:53:52.962Z,7.03
2023-04-18T06:56:23.019Z,5.15
2023-04-18T06:58:49.995Z,6.63
2023-04-18T07:01:16.719Z,5.43
2023-04-18T07:03:43.550Z,6.80
2023-04-18T07:06:11.028Z,5.80
2023-04-18T07:08:38.216Z,6.70
2023-04-18T07:11:06.234Z,5.30
2023-04-18T07:13:33.138Z,5.20
2023-04-18T07:16:00.121Z,6.63
2023-04-18T07:18:36.651Z,6.17
2023-04-18T07:21:07.477Z,5.43
2023-04-18T07:23:34.671Z,5.43
2023-04-18T07:26:02.991Z,4.75
2023-04-18T07:28:31.386Z,6.47
2023-04-18T07:30:59.364Z,4.97
2023-04-18T07:33:25.941Z,6.50
2023-04-18T07:35:53.267Z,5.70
2023-04-18T07:38:20.138Z,5.07
2023-04-18T07:40:46.902Z,5.55
2023-04-18T07:43:13.469Z,4.57
2023-04-18T07:45:43.187Z,4.90
2023-04-18T07:48:10.053Z,4.78
2023-04-18T07:50:36.662Z,5.90
2023-04-18T07:53:03.645Z,5.15
2023-04-18T07:55:30.914Z,5.80
2023-04-18T07:57:57.484Z,6.05
2023-04-18T08:00:24.723Z,5.93
2023-04-18T08:02:51.582Z,5.40
2023-04-18T08:05:21.397Z,6.68
2023-04-18T08:07:47.989Z,5.13
2023-04-18T08:10:14.616Z,6.03
2023-04-18T08:12:41.229Z,5.32
2023-04-18T08:15:08.558Z,4.80
2023-04-18T08:17:35.351Z,5.32
2023-04-18T08:20:05.057Z,5.87
2023-04-18T08:22:31.866Z,6.47
2023-04-18T08:25:04.943Z,6.20
2023-04-18T08:27:33.044Z,6.80
2023-04-18T08:29:59.907Z,5.97
2023-04-18T08:32:26.486Z,6.87
2023-04-18T08:34:53.198Z,4.50
2023-04-18T08:37:19.813Z,6.25
2023-04-18T08:39:46.339Z,6.35
2023-04-18T08:42:19.197Z,5.53
2023-04-18T08:44:47.266Z,5.67
2023-04-18T08:47:14.760Z,5.85
2023-04-18T08:49:46.734Z,6.55
2023-04-18T08:52:14.870Z,6.55
2023-04-18T08:54:43.066Z,6.53
2023-04-18T08:57:12.633Z,4.77
2023-04-18T08:59:40.390Z,6.38
2023-04-18T09:02:09.145Z,7.10
2023-04-18T09:04:49.161Z,6.43
2023-04-18T09:07:18.071Z,7.03
2023-04-18T09:09:53.152Z,5.43
2023-04-18T09:12:25.383Z,6.90
2023-04-18T09:14:57.964Z,5.32
2023-04-18T09:17:38.578Z,6.15
2023-04-18T09:20:06.809Z,5.50
2023-04-18T09:22:50.659Z,6.60
2023-04-18T09:25:39.853Z,6.45
2023-04-18T09:28:33.128Z,7.28
2023-04-18T09:31:13.591Z,5.45
2023-04-18T09:33:44.863Z,8.13
2023-04-18T09:36:19.074Z,7.20
2023-04-18T09:38:46.702Z,7.35
2023-04-18T09:41:15.970Z,7.65
2023-04-18T09:43:44.307Z,7.88
2023-04-18T09:46:11.366Z,8.10
2023-04-18T09:48:38.374Z,8.77
2023-04-18T09:51:10.137Z,8.98
2023-04-18T09:53:41.389Z,8.68
2023-04-18T09:56:24.564Z,7.97
2023-04-18T09:58:56.621Z,8.20
2023-04-18T10:01:28.378Z,8.27
2023-04-18T10:03:57.569Z,7.72
2023-04-18T10:06:27.483Z,8.48
2023-04-18T10:08:55.284Z,8.73
2023-04-18T10:11:23.929Z,8.23
2023-04-18T10:13:56.270Z,7.20
2023-04-18T10:16:23.404Z,7.00
2023-04-18T10:18:51.372Z,7.53
2023-04-18T10:21:17.964Z,8.00
2023-04-18T10:23:48.723Z,8.60
2023-04-18T10:26:15.347Z,7.77
2023-04-18T10:28:57.007Z,8.38
2023-04-18T10:31:25.701Z,5.80
2023-04-18T10:36:28.454Z,7.95
2023-04-18T10:39:00.924Z,7.80
2023-04-18T10:41:33.562Z,7.60
2023-04-18T10:44:08.256Z,8.05
2023-04-18T10:46:51.121Z,7.03
2023-04-18T10:49:32.599Z,7.32
2023-04-18T10:52:01.079Z,7.37
2023-04-18T10:55:03.836Z,7.45
2023-04-18T10:57:43.701Z,7.47
2023-04-18T11:00:12.734Z,7.35
2023-04-18T11:02:49.371Z,6.22
2023-04-18T11:05:28.546Z,7.50
2023-04-18T11:07:55.712Z,6.97
2023-04-18T11:10:24.580Z,6.90
2023-04-18T11:12:52.439Z,6.63
2023-04-18T11:15:24.086Z,7.53
2023-04-18T11:17:59.285Z,5.90
2023-04-18T11:20:26.662Z,6.65
2023-04-18T11:22:57.776Z,6.22
2023-04-18T11:25:32.610Z,8.07
2023-04-18T11:28:01.538Z,7.30
2023-04-18T11:30:35.787Z,5.93
2023-04-18T11:33:08.675Z,6.68
2023-04-18T11:35:38.811Z,7.38
2023-04-18T11:38:06.682Z,6.13
2023-04-18T11:40:33.376Z,6.90
2023-04-18T11:43:05.087Z,6.07
2023-04-18T11:45:31.782Z,6.78
2023-04-18T11:47:59.862Z,7.18
2023-04-18T11:50:27.370Z,6.38
2023-04-18T11:52:54.833Z,6.93
2023-04-18T11:55:24.766Z,5.90
2023-04-18T11:57:58.787Z,6.18
2023-04-18T12:00:37.768Z,6.47
2023-04-18T12:03:15.840Z,5.82
2023-04-18T12:05:43.194Z,7.00
2023-04-18T12:08:13.516Z,6.20
2023-04-18T12:10:50.914Z,6.32
2023-04-18T12:13:18.895Z,7.10
2023-04-18T12:15:46.761Z,6.38
2023-04-18T12:18:15.368Z,6.45
2023-04-18T12:20:47.427Z,6.13
2023-04-18T12:23:35.623Z,5.25
2023-04-18T12:26:03.962Z,6.28
2023-04-18T12:28:30.951Z,5.70
2023-04-18T12:30:57.909Z,6.38
2023-04-18T12:33:24.992Z,5.40
2023-04-18T12:35:52.871Z,6.78
2023-04-18T12:38:23.631Z,5.82
2023-04-18T12:40:51.731Z,5.53
2023-04-18T12:43:19.079Z,4.88
2023-04-18T12:45:46.833Z,6.23
2023-04-18T12:48:13.583Z,5.40
2023-04-18T12:50:40.203Z,5.68
2023-04-18T12:53:06.964Z,4.88
2023-04-18T12:55:33.581Z,5.35
2023-04-18T12:58:00.801Z,4.20
2023-04-18T13:00:29.886Z,5.43
2023-04-18T13:02:57.328Z,5.22
2023-04-18T13:05:29.880Z,4.50
2023-04-18T13:08:15.139Z,4.70
2023-04-18T13:10:43.400Z,4.17
2023-04-18T13:13:09.996Z,5.00
2023-04-18T13:15:36.643Z,4.15
2023-04-18T13:18:06.175Z,3.95
2023-04-18T13:20:34.355Z,4.30
2023-04-18T13:23:02.683Z,4.43
2023-04-18T13:25:29.355Z,3.85
2023-04-18T13:27:57.482Z,3.95
2023-04-18T13:30:24.083Z,3.63
2023-04-18T13:32:50.810Z,3.72
2023-04-18T13:35:17.470Z,3.40
2023-04-18T13:37:44.029Z,2.83
2023-04-18T13:40:11.206Z,3.50
2023-04-18T13:42:38.922Z,3.15
2023-04-18T13:45:06.120Z,3.83
2023-04-18T13:47:32.747Z,3.40
2023-04-18T13:49:59.465Z,3.53
2023-04-18T13:52:26.322Z,4.28
2023-04-18T13:54:53.011Z,3.65
2023-04-18T13:57:19.886Z,3.88
2023-04-18T13:59:47.027Z,4.07
2023-04-18T14:02:13.966Z,4.07
2023-04-18T14:04:40.989Z,3.90
2023-04-18T14:07:08.150Z,4.22
2023-04-18T14:09:35.089Z,3.92
2023-04-18T14:12:02.174Z,3.83
2023-04-18T14:14:29.234Z,5.03
2023-04-18T14:16:55.857Z,4.10
2023-04-18T14:19:22.628Z,4.68
2023-04-18T14:21:49.330Z,4.88
2023-04-18T14:24:15.908Z,4.80
2023-04-18T14:26:42.579Z,6.63
2023-04-18T14:29:09.117Z,4.65
2023-04-18T14:31:35.890Z,4.88
2023-04-18T14:34:02.782Z,5.68
2023-04-18T14:36:29.354Z,4.20
2023-04-18T14:38:56.139Z,5.30
2023-04-18T14:41:22.782Z,5.25
2023-04-18T14:43:49.355Z,5.03
2023-04-18T14:46:19.515Z,6.63
2023-04-18T14:48:48.946Z,5.10
2023-04-18T14:51:16.889Z,4.53
2023-04-18T14:53:44.630Z,4.97
2023-04-18T14:56:11.467Z,4.65
2023-04-18T14:58:38.099Z,5.13
2023-04-18T15:01:05.839Z,5.10
2023-04-18T15:03:32.743Z,6.07
2023-04-18T15:05:59.628Z,5.82
2023-04-18T15:08:26.467Z,5.47
2023-04-18T15:10:53.270Z,5.35
2023-04-18T15:13:20.231Z,5.90
2023-04-18T15:15:57.382Z,5.50
2023-04-18T15:18:23.956Z,5.50
2023-04-18T15:20:51.627Z,6.03
2023-04-18T15:23:18.315Z,6.22
2023-04-18T15:25:45.664Z,5.93
2023-04-18T15:28:16.354Z,5.65
2023-04-18T15:30:43.161Z,5.93
2023-04-18T15:33:11.508Z,6.80
2023-04-18T15:35:38.247Z,5.30
2023-04-18T15:38:05.567Z,6.63
2023-04-18T15:40:33.224Z,5.82
2023-04-18T15:42:59.991Z,7.13
2023-04-18T15:45:26.529Z,5.75
2023-04-18T15:47:53.453Z,5.20
2023-04-18T15:50:20.138Z,7.03
2023-04-18T15:52:46.774Z,6.65
2023-04-18T15:55:13.734Z,6.45
2023-04-18T15:57:41.603Z,6.30
2023-04-18T16:00:15.996Z,7.43
2023-04-18T16:02:44.117Z,7.53
2023-04-18T16:05:12.418Z,6.63
2023-04-18T16:07:40.379Z,7.68
2023-04-18T16:10:10.687Z,7.40
2023-04-18T16:12:39.006Z,7.75
2023-04-18T16:15:08.717Z,8.87
2023-04-18T16:17:36.604Z,8.48
2023-04-18T16:20:03.740Z,8.27
2023-04-18T16:22:30.351Z,7.90
2023-04-18T16:24:56.933Z,9.68
2023-04-18T16:27:23.734Z,9.33
2023-04-18T16:29:50.446Z,9.38
2023-04-18T16:32:17.189Z,9.63
2023-04-18T16:34:43.822Z,8.90
2023-04-18T16:37:10.687Z,9.82
2023-04-18T16:39:37.522Z,9.23
2023-04-18T16:42:04.571Z,9.02
2023-04-18T16:44:31.422Z,9.55
2023-04-18T16:46:58.092Z,8.35
2023-04-18T16:49:25.329Z,8.63
2023-04-18T16:51:52.052Z,9.13
2023-04-18T16:54:18.790Z,9.13
2023-04-18T16:56:45.559Z,10.20
2023-04-18T16:59:12.197Z,7.15
2023-04-18T17:01:38.865Z,8.95
2023-04-18T17:04:05.783Z,9.63
2023-04-18T17:06:32.788Z,7.57
2023-04-18T17:08:59.488Z,8.98
2023-04-18T17:11:26.589Z,9.10
2023-04-18T17:13:53.362Z,9.60
2023-04-18T17:16:20.123Z,8.87
2023-04-18T17:18:47.017Z,9.35
2023-04-18T17:21:13.624Z,8.18
2023-04-18T17:23:42.445Z,8.52
2023-04-18T17:26:10.036Z,8.93
2023-04-18T17:28:37.190Z,8.87
2023-04-18T17:31:04.278Z,9.73
2023-04-18T17:33:31.364Z,10.27
2023-04-18T17:35:58.340Z,9.00
2023-04-18T17:38:25.108Z,9.82
2023-04-18T17:40:59.954Z,9.27
2023-04-18T17:43:26.695Z,8.52
2023-04-18T17:45:56.549Z,10.13
2023-04-18T17:48:23.136Z,10.13
2023-04-18T17:50:49.696Z,9.55
2023-04-18T17:53:17.573Z,8.97
2023-04-18T17:55:45.514Z,9.93
2023-04-18T17:58:12.267Z,8.65
2023-04-18T18:00:38.846Z,9.27
2023-04-18T18:03:08.459Z,10.23
2023-04-18T18:05:35.193Z,8.93
2023-04-18T18:08:01.834Z,9.38
2023-04-18T18:10:28.839Z,9.45
2023-04-18T18:12:55.365Z,9.63
2023-04-18T18:15:22.004Z,10.30
2023-04-18T18:17:49.943Z,8.23
2023-04-18T18:20:17.437Z,10.40
2023-04-18T18:22:44.635Z,9.00
2023-04-18T18:25:11.223Z,8.88
2023-04-18T18:27:38.023Z,9.63
2023-04-18T18:30:05.568Z,9.37
2023-04-18T18:32:32.253Z,9.27
2023-04-18T18:34:58.963Z,9.48
2023-04-18T18:37:26.774Z,9.80
2023-04-18T18:39:56.537Z,10.27
2023-04-18T18:42:23.138Z,9.83
2023-04-18T18:44:49.695Z,9.05
2023-04-18T18:47:17.826Z,8.75
2023-04-18T18:49:44.708Z,10.25
2023-04-18T18:52:11.419Z,9.73
2023-04-18T18:54:37.976Z,9.73
2023-04-18T18:57:04.710Z,11.35
2023-04-18T18:59:31.659Z,11.23
2023-04-18T19:01:58.325Z,10.40
2023-04-18T19:04:25.092Z,10.52
2023-04-18T19:06:51.860Z,9.87
2023-04-18T19:09:18.802Z,9.27
2023-04-18T19:11:45.394Z,10.32
2023-04-18T19:14:11.929Z,11.25
2023-04-18T19:16:38.488Z,10.80
2023-04-18T19:19:05.308Z,10.47
2023-04-18T19:21:32.032Z,9.23
2023-04-18T19:23:58.565Z,12.23
2023-04-18T19:26:25.119Z,10.27
2023-04-18T19:28:51.857Z,10.13
2023-04-18T19:31:19.004Z,9.53
2023-04-18T19:33:46.237Z,10.13
2023-04-18T19:36:12.938Z,10.65
2023-04-18T19:38:39.656Z,9.35
2023-04-18T19:41:06.326Z,10.73
2023-04-18T19:43:33.182Z,9.47
2023-04-18T19:45:59.758Z,10.38
2023-04-18T19:48:26.362Z,9.40
2023-04-18T19:50:53.020Z,9.90
2023-04-18T19:53:20.463Z,10.27
2023-04-18T19:55:47.166Z,8.73
2023-04-18T19:58:34.601Z,9.18
2023-04-18T20:01:01.700Z,9.02
2023-04-18T20:03:28.536Z,10.25
2023-04-18T20:05:55.587Z,10.48
2023-04-18T20:08:22.147Z,8.10
2023-04-18T20:10:48.817Z,9.68
2023-04-18T20:13:15.719Z,11.15
2023-04-18T20:15:42.468Z,9.43
2023-04-18T20:18:09.074Z,10.40
2023-04-18T20:20:35.839Z,9.10
2023-04-18T20:23:03.375Z,8.02
2023-04-18T20:25:29.917Z,10.02
2023-04-18T20:27:56.646Z,10.43
2023-04-18T20:30:23.685Z,10.38
2023-04-18T20:32:50.456Z,9.43
2023-04-18T20:35:17.371Z,9.23
2023-04-18T20:37:44.691Z,10.98
2023-04-18T20:40:11.682Z,8.45
2023-04-18T20:42:39.138Z,8.85
2023-04-18T20:45:06.723Z,8.97
2023-04-18T20:47:34.156Z,9.05
2023-04-18T20:50:00.879Z,10.13
2023-04-18T20:52:27.557Z,9.13
2023-04-18T20:54:54.090Z,8.98
2023-04-18T20:57:20.867Z,8.53
2023-04-18T20:59:47.851Z,10.35
2023-04-18T21:02:14.544Z,9.63
2023-04-18T21:04:41.637Z,8.65
2023-04-18T21:07:08.372Z,9.27
2023-04-18T21:09:37.049Z,9.17
2023-04-18T21:12:04.215Z,9.15
2023-04-18T21:14:30.792Z,8.45
2023-04-18T21:16:58.079Z,9.02
2023-04-18T21:19:24.963Z,8.40
2023-04-18T21:21:52.886Z,8.73
2023-04-18T21:24:19.628Z,9.32
2023-04-18T21:26:46.163Z,9.65
2023-04-18T21:29:12.793Z,9.57
2023-04-18T21:31:39.445Z,8.82
2023-04-18T21:34:06.228Z,8.77
2023-04-18T21:36:32.952Z,10.00
2023-04-18T21:39:01.309Z,9.63
2023-04-18T21:41:28.173Z,8.98
2023-04-18T21:43:54.736Z,9.45
2023-04-18T21:46:21.634Z,8.30
2023-04-18T21:48:48.737Z,8.35
2023-04-18T21:51:16.600Z,9.70
2023-04-18T21:53:43.820Z,8.63
2023-04-18T21:56:10.988Z,9.38
2023-04-18T21:58:37.998Z,7.97
2023-04-18T22:01:05.030Z,9.38
2023-04-18T22:03:34.109Z,8.73
2023-04-18T22:06:01.558Z,8.27
2023-04-18T22:08:28.356Z,9.43
2023-04-18T22:10:57.766Z,8.83
2023-04-18T22:13:26.044Z,9.73
2023-04-18T22:15:52.692Z,9.70
2023-04-18T22:18:19.416Z,8.65
2023-04-18T22:20:46.947Z,9.90
2023-04-18T22:23:14.160Z,8.37
2023-04-18T22:25:41.012Z,9.80
2023-04-18T22:28:07.731Z,8.73
2023-04-18T22:30:34.799Z,7.05
2023-04-18T22:33:01.541Z,8.68
2023-04-18T22:35:28.251Z,8.37
2023-04-18T22:37:56.069Z,9.50
2023-04-18T22:40:22.878Z,8.48
2023-04-18T22:42:52.040Z,8.38
2023-04-18T22:45:19.262Z,8.65
2023-04-18T22:47:46.841Z,8.27
2023-04-18T22:50:14.534Z,8.30
2023-04-18T22:52:41.429Z,9.38
2023-04-18T22:55:08.957Z,8.27
2023-04-18T22:57:35.707Z,8.00
2023-04-18T23:00:02.591Z,8.97
2023-04-18T23:02:29.319Z,8.43
2023-04-18T23:04:59.162Z,9.02
2023-04-18T23:07:25.823Z,8.27
2023-04-18T23:09:52.387Z,9.95
2023-04-18T23:12:18.946Z,8.90
2023-04-18T23:14:45.863Z,8.50
2023-04-18T23:17:12.437Z,10.02
2023-04-18T23:19:39.500Z,10.02
2023-04-18T23:22:06.097Z,9.27
2023-04-18T23:24:32.669Z,10.70
2023-04-18T23:26:59.339Z,10.05
2023-04-18T23:29:25.869Z,8.88
2023-04-18T23:31:52.501Z,10.35
2023-04-18T23:34:19.161Z,9.00
2023-04-18T23:36:45.804Z,9.30
2023-04-18T23:39:12.427Z,10.07
2023-04-18T23:41:39.022Z,9.02
2023-04-18T23:44:05.924Z,9.98
2023-04-18T23:46:33.796Z,9.55
2023-04-18T23:49:02.409Z,10.70
2023-04-18T23:51:29.068Z,8.82
2023-04-18T23:53:55.663Z,10.10
2023-04-18T23:56:23.297Z,9.07
2023-04-18T23:58:50.180Z,9.45
